Airfield :
LOGIN :

Register | Disclaimer

   EN    FR    IT 

 










Legend :    VFR   Marginal VFR   IFR   Intensive IFR   Very Intensive IFR
Visi :
Ceiling :
>= 8 km
>= 3000ft
5 to 8 km
1000 to 3000 ft
1500m to 5 km
500 to 1000 ft
800 to 1500m
200 to 500 ft
< 800m
< 200 ft
Symbols :   Thunderstorms  Fog  Heavy snow  Heavy precipitations  Wind > 20 kt
SIGMETs :     Misc.  Thunderstorms  Icing  Turbulence  Mountain Waves  Volcanic Ashes






- Airport Elevation : 336 ft
- IATA code : GCI


EGJB - Guernsey

CURRENT METAR :
  • 290620Z 26009KT 2500 DZ VCFG BR FEW000 SCT002 BKN003 13/13 Q1012 RERA

EXPIRED METARs :
  • 290550Z 25010KT 4000 1000S R27/1300U -RA VCFG FEW000 SCT001 BKN003 13/13 Q1012
  • 290520Z 25011KT 0250 R27/0700U FG BKN000 13/13 Q1012
  • 290450Z 25010KT 0200 R27/0550D FG BKN000 13/13 Q1012
  • 290420Z 26011KT 0200 R27/0400 FG BKN000 13/13 Q1012
  • 290350Z 26012KT 0150 FG OVC000 13/13 Q1013
  • 290320Z 25013KT 0150 -DZ FG OVC000 13/13 Q1013
  • 290250Z 25011KT 0150 -DZ FG OVC000 13/13 Q1013
  • 290150Z 25013KT 0600 FG BKN000 BKN001 13/13 Q1013

TAF TAF EGJB
Valid from the 29 at 06:00 until the 29 at 15:00 UTC


290459Z 2906/2915 27010KT 0200 -DZ FG OVC000
PROB40
TEMPO 2906/2912 1200 RADZ BR FEW000 SCT001 BKN002
PROB30
TEMPO 2906/2912 6000 FEW002 SCT004 BKN006
BECMG 2912/2915 6000 FEW002 SCT004 BKN006
PROB30
TEMPO 2912/2915 9999 NSW FEW003 SCT006
ATIS : +44 1481 238 957



MET'MAP, your aeronautical weather chart ! - Copyright ORBIFLY December 2007 - Disclaimer

ORBIFLY MET'MAP TEAM :

Programming & Development : Alexandra Zaïnal
Original concept : Baudouin d'Aumeries
Technical & hardware support : Manuel Goepfert
Assistance : Marc-Olivier Méhu




SOURCES & CREDITS :

   NOAA